createdAt,value
2023-01-15T00:01:39.628Z,4.87
2023-01-15T00:04:07.846Z,4.91
2023-01-15T00:06:40.037Z,4.93
2023-01-15T00:09:09.235Z,4.90
2023-01-15T00:11:35.882Z,4.89
2023-01-15T00:14:02.609Z,4.92
2023-01-15T00:16:30.429Z,4.86
2023-01-15T00:18:59.369Z,4.86
2023-01-15T00:21:27.770Z,5.00
2023-01-15T00:24:13.566Z,4.96
2023-01-15T00:26:59.690Z,4.95
2023-01-15T00:29:27.030Z,4.90
2023-01-15T00:32:05.959Z,4.95
2023-01-15T00:34:33.656Z,4.82
2023-01-15T00:37:00.424Z,4.89
2023-01-15T00:39:27.277Z,4.89
2023-01-15T00:41:55.086Z,4.87
2023-01-15T00:44:22.693Z,4.84
2023-01-15T00:46:49.431Z,4.78
2023-01-15T00:49:16.221Z,4.82
2023-01-15T00:51:43.015Z,4.80
2023-01-15T00:54:09.759Z,4.78
2023-01-15T00:56:36.874Z,4.75
2023-01-15T00:59:05.541Z,4.70
2023-01-15T01:01:32.852Z,4.75
2023-01-15T01:03:59.760Z,4.71
2023-01-15T01:06:26.816Z,4.76
2023-01-15T01:08:53.651Z,4.78
2023-01-15T01:11:25.058Z,4.77
2023-01-15T01:13:51.795Z,4.63
2023-01-15T01:16:32.125Z,4.75
2023-01-15T01:19:00.704Z,4.71
2023-01-15T01:21:27.823Z,4.77
2023-01-15T01:23:55.144Z,5.00
2023-01-15T01:26:21.827Z,4.85
2023-01-15T01:28:53.254Z,4.89
2023-01-15T01:31:20.540Z,4.84
2023-01-15T01:33:52.393Z,4.83
2023-01-15T01:36:20.124Z,4.81
2023-01-15T01:38:49.959Z,4.80
2023-01-15T01:41:19.848Z,4.89
2023-01-15T01:43:58.361Z,4.89
2023-01-15T01:46:26.104Z,4.85
2023-01-15T01:48:57.629Z,4.76
2023-01-15T01:51:29.080Z,4.98
2023-01-15T01:53:57.865Z,4.95
2023-01-15T01:56:24.876Z,4.89
2023-01-15T01:58:55.204Z,4.91
2023-01-15T02:01:28.976Z,4.93
2023-01-15T02:03:56.303Z,4.95
2023-01-15T02:06:24.421Z,4.93
2023-01-15T02:08:51.191Z,4.91
2023-01-15T02:11:21.690Z,4.93
2023-01-15T02:14:31.426Z,4.98
2023-01-15T02:17:36.086Z,4.95
2023-01-15T02:20:16.556Z,5.08
2023-01-15T02:22:52.233Z,4.68
2023-01-15T02:25:43.539Z,4.85
2023-01-15T02:28:22.970Z,4.83
2023-01-15T02:30:57.283Z,4.52
2023-01-15T02:33:35.310Z,4.73
2023-01-15T02:36:02.352Z,4.77
2023-01-15T02:38:32.493Z,4.74
2023-01-15T02:41:02.505Z,4.90
2023-01-15T02:43:35.548Z,4.88
2023-01-15T02:46:05.830Z,5.01
2023-01-15T02:48:37.114Z,5.08
2023-01-15T02:51:10.250Z,5.19
2023-01-15T02:53:41.374Z,4.99
2023-01-15T02:56:15.007Z,4.90
2023-01-15T02:58:43.906Z,5.03
2023-01-15T03:01:18.829Z,4.95
2023-01-15T03:04:41.700Z,4.92
2023-01-15T03:07:36.465Z,4.80
2023-01-15T03:10:04.941Z,4.77
2023-01-15T03:13:03.514Z,4.88
2023-01-15T03:15:54.884Z,4.84
2023-01-15T03:18:22.804Z,4.76
2023-01-15T03:20:53.236Z,4.83
2023-01-15T03:23:24.196Z,4.90
2023-01-15T03:25:51.444Z,4.81
2023-01-15T03:28:24.948Z,4.74
2023-01-15T03:30:52.020Z,4.68
2023-01-15T03:33:19.394Z,4.75
2023-01-15T03:35:57.744Z,4.66
2023-01-15T03:38:47.222Z,4.61
2023-01-15T03:41:19.798Z,4.56
2023-01-15T03:43:52.346Z,4.70
2023-01-15T03:46:37.042Z,4.79
2023-01-15T03:49:42.417Z,4.68
2023-01-15T03:52:22.436Z,4.57
2023-01-15T03:54:58.376Z,4.55
2023-01-15T03:57:38.832Z,4.54
2023-01-15T04:00:28.470Z,4.59
2023-01-15T04:02:57.484Z,4.57
2023-01-15T04:05:26.129Z,4.49
2023-01-15T04:07:54.717Z,4.38
2023-01-15T04:10:21.443Z,4.40
2023-01-15T04:12:48.141Z,4.40
2023-01-15T04:15:15.190Z,4.47
2023-01-15T04:17:41.898Z,4.55
2023-01-15T04:20:09.616Z,4.55
2023-01-15T04:22:36.264Z,4.47
2023-01-15T04:25:04.338Z,4.44
2023-01-15T04:27:31.514Z,4.36
2023-01-15T04:29:58.240Z,4.56
2023-01-15T04:32:25.163Z,4.59
2023-01-15T04:34:51.820Z,4.61
2023-01-15T04:37:19.127Z,4.85
2023-01-15T04:39:47.338Z,4.71
2023-01-15T04:42:33.759Z,4.63
2023-01-15T04:45:00.530Z,4.59
2023-01-15T04:47:31.004Z,4.60
2023-01-15T04:49:57.673Z,4.55
2023-01-15T04:52:24.519Z,4.59
2023-01-15T04:54:51.165Z,4.66
2023-01-15T04:57:17.762Z,4.51
2023-01-15T04:59:44.462Z,4.49
2023-01-15T05:02:11.169Z,4.57
2023-01-15T05:04:38.048Z,4.59
2023-01-15T05:07:05.604Z,4.57
2023-01-15T05:09:32.907Z,4.45
2023-01-15T05:11:59.600Z,4.57
2023-01-15T05:14:26.343Z,4.58
2023-01-15T05:16:53.005Z,4.73
2023-01-15T05:19:19.924Z,4.71
2023-01-15T05:21:46.720Z,4.81
2023-01-15T05:24:16.187Z,4.69
2023-01-15T05:26:43.912Z,4.76
2023-01-15T05:29:12.143Z,4.79
2023-01-15T05:31:39.254Z,4.74
2023-01-15T05:34:05.931Z,4.70
2023-01-15T05:36:32.955Z,4.85
2023-01-15T05:39:01.980Z,4.75
2023-01-15T05:41:48.575Z,4.76
2023-01-15T05:44:26.545Z,4.70
2023-01-15T05:46:55.522Z,4.60
2023-01-15T05:49:24.995Z,4.60
2023-01-15T05:51:52.676Z,4.51
2023-01-15T05:54:25.297Z,4.48
2023-01-15T05:56:52.409Z,4.43
2023-01-15T05:59:21.447Z,4.46
2023-01-15T06:01:48.899Z,4.40
2023-01-15T06:04:17.861Z,4.52
2023-01-15T06:06:44.627Z,4.35
2023-01-15T06:09:11.483Z,4.50
2023-01-15T06:11:38.525Z,4.47
2023-01-15T06:14:05.437Z,4.45
2023-01-15T06:16:32.650Z,4.43
2023-01-15T06:19:04.346Z,4.45
2023-01-15T06:21:33.713Z,4.44
2023-01-15T06:24:00.446Z,4.43
2023-01-15T06:26:28.035Z,4.39
2023-01-15T06:28:54.732Z,4.26
2023-01-15T06:31:24.302Z,4.44
2023-01-15T06:33:51.255Z,4.44
2023-01-15T06:36:24.018Z,4.59
2023-01-15T06:38:50.882Z,4.59
2023-01-15T06:41:39.051Z,4.57
2023-01-15T06:44:26.651Z,4.61
2023-01-15T06:47:13.683Z,4.67
2023-01-15T06:49:40.419Z,4.66
2023-01-15T06:52:07.603Z,4.62
2023-01-15T06:54:34.816Z,4.63
2023-01-15T06:57:01.818Z,4.53
2023-01-15T06:59:28.795Z,4.73
2023-01-15T07:01:55.950Z,4.73
2023-01-15T07:04:22.860Z,4.69
2023-01-15T07:06:49.589Z,4.78
2023-01-15T07:09:16.377Z,4.78
2023-01-15T07:11:51.960Z,4.76
2023-01-15T07:14:20.649Z,4.81
2023-01-15T07:16:47.617Z,4.70
2023-01-15T07:19:14.536Z,4.82
2023-01-15T07:21:41.573Z,4.66
2023-01-15T07:24:09.153Z,4.69
2023-01-15T07:26:35.830Z,4.70
2023-01-15T07:29:03.247Z,4.79
2023-01-15T07:31:30.158Z,4.70
2023-01-15T07:33:57.535Z,4.98
2023-01-15T07:36:24.757Z,5.08
2023-01-15T07:38:51.540Z,5.12
2023-01-15T07:41:36.729Z,5.18
2023-01-15T07:44:22.201Z,4.76
2023-01-15T07:47:06.965Z,4.89
2023-01-15T07:49:49.028Z,4.98
2023-01-15T07:52:18.276Z,4.93
2023-01-15T07:54:46.575Z,4.96
2023-01-15T07:57:15.381Z,5.10
2023-01-15T07:59:42.293Z,5.31
2023-01-15T08:02:09.492Z,5.29
2023-01-15T08:04:36.391Z,5.36
2023-01-15T08:07:04.433Z,5.20
2023-01-15T08:09:31.520Z,5.01
2023-01-15T08:12:20.414Z,5.07
2023-01-15T08:15:05.714Z,5.12
2023-01-15T08:17:40.033Z,5.20
2023-01-15T08:20:12.083Z,5.30
2023-01-15T08:22:40.182Z,5.23
2023-01-15T08:25:09.148Z,5.29
2023-01-15T08:27:37.289Z,5.41
2023-01-15T08:30:06.385Z,5.42
2023-01-15T08:32:33.022Z,5.43
2023-01-15T08:34:59.878Z,5.39
2023-01-15T08:37:26.615Z,5.42
2023-01-15T08:39:53.362Z,5.46
2023-01-15T08:42:20.968Z,5.76
2023-01-15T08:44:48.730Z,5.89
2023-01-15T08:47:16.789Z,5.95
2023-01-15T08:49:43.537Z,6.04
2023-01-15T08:52:10.322Z,6.29
2023-01-15T08:54:36.972Z,6.32
2023-01-15T08:57:03.804Z,6.23
2023-01-15T08:59:30.692Z,6.31
2023-01-15T09:01:57.409Z,6.57
2023-01-15T09:04:24.139Z,6.30
2023-01-15T09:06:51.421Z,6.08
2023-01-15T09:09:18.988Z,6.53
2023-01-15T09:11:46.321Z,6.58
2023-01-15T09:14:58.037Z,6.31
2023-01-15T09:17:02.197Z,6.20
2023-01-15T09:19:28.990Z,6.05
2023-01-15T09:21:55.636Z,6.05
2023-01-15T09:24:22.738Z,6.06
2023-01-15T09:26:53.222Z,6.07
2023-01-15T09:29:20.097Z,6.07
2023-01-15T09:31:47.060Z,6.16
2023-01-15T09:34:13.776Z,5.96
2023-01-15T09:36:41.415Z,6.00
2023-01-15T09:39:08.377Z,6.01
2023-01-15T09:42:05.488Z,6.00
2023-01-15T09:44:44.154Z,5.95
2023-01-15T09:47:26.901Z,6.11
2023-01-15T09:50:30.012Z,6.06
2023-01-15T09:53:23.580Z,6.11
2023-01-15T09:55:50.953Z,6.15
2023-01-15T09:58:21.062Z,6.32
2023-01-15T10:00:54.026Z,6.41
2023-01-15T10:03:37.467Z,6.39
2023-01-15T10:06:04.069Z,6.45
2023-01-15T10:08:39.554Z,6.53
2023-01-15T10:11:17.812Z,6.69
2023-01-15T10:13:49.284Z,6.96
2023-01-15T10:16:25.763Z,6.92
2023-01-15T10:18:54.911Z,6.89
2023-01-15T10:21:58.526Z,7.01
2023-01-15T10:24:38.528Z,6.98
2023-01-15T10:27:18.334Z,6.87
2023-01-15T10:30:29.252Z,6.91
2023-01-15T10:33:03.045Z,7.08
2023-01-15T10:35:58.849Z,7.26
2023-01-15T10:38:40.449Z,7.12
2023-01-15T10:41:34.865Z,7.19
2023-01-15T10:44:19.512Z,7.20
2023-01-15T10:46:55.109Z,7.10
2023-01-15T10:49:22.571Z,7.37
2023-01-15T10:51:57.040Z,7.45
2023-01-15T10:54:42.406Z,7.30
2023-01-15T10:57:22.262Z,7.39
2023-01-15T10:59:57.964Z,7.36
2023-01-15T11:02:33.733Z,7.52
2023-01-15T11:05:02.306Z,7.19
2023-01-15T11:08:16.607Z,7.42
2023-01-15T11:10:41.161Z,7.31
2023-01-15T11:13:44.205Z,7.19
2023-01-15T11:16:45.318Z,7.32
2023-01-15T11:19:43.789Z,7.03
2023-01-15T11:22:11.990Z,6.92
2023-01-15T11:24:53.588Z,7.07
2023-01-15T11:27:25.776Z,7.27
2023-01-15T11:29:58.030Z,7.27
2023-01-15T11:32:32.639Z,7.15
2023-01-15T11:35:14.694Z,7.22
2023-01-15T11:37:41.383Z,7.31
2023-01-15T11:40:19.668Z,7.10
2023-01-15T11:43:06.569Z,7.28
2023-01-15T11:45:51.961Z,7.32
2023-01-15T11:48:41.889Z,7.58
2023-01-15T11:51:10.442Z,7.73
2023-01-15T11:54:06.014Z,7.46
2023-01-15T11:56:34.704Z,7.49
2023-01-15T11:59:10.986Z,7.56
2023-01-15T12:01:46.078Z,7.54
2023-01-15T12:04:30.745Z,7.15
2023-01-15T12:06:58.165Z,7.20
2023-01-15T12:09:30.969Z,7.31
2023-01-15T12:12:21.855Z,7.60
2023-01-15T12:15:18.986Z,7.33
2023-01-15T12:18:10.222Z,7.20
2023-01-15T12:21:25.221Z,7.24
2023-01-15T12:24:10.271Z,7.35
2023-01-15T12:27:17.604Z,7.56
2023-01-15T12:29:50.165Z,7.61
2023-01-15T12:32:24.466Z,7.67
2023-01-15T12:35:23.195Z,7.65
2023-01-15T12:37:58.315Z,7.62
2023-01-15T12:40:45.568Z,7.34
2023-01-15T12:43:38.382Z,7.42
2023-01-15T12:46:11.497Z,7.37
2023-01-15T12:48:54.680Z,7.38
2023-01-15T12:51:29.755Z,7.40
2023-01-15T12:54:04.487Z,7.36
2023-01-15T12:57:02.943Z,7.39
2023-01-15T12:59:36.287Z,7.17
2023-01-15T13:02:19.838Z,7.18
2023-01-15T13:04:50.447Z,6.95
2023-01-15T13:07:37.655Z,7.13
2023-01-15T13:10:07.827Z,7.24
2023-01-15T13:12:34.844Z,7.22
2023-01-15T13:15:02.782Z,7.11
2023-01-15T13:17:38.266Z,7.43
2023-01-15T13:20:10.827Z,7.77
2023-01-15T13:22:58.012Z,7.30
2023-01-15T13:25:40.069Z,7.11
2023-01-15T13:28:21.588Z,6.89
2023-01-15T13:31:06.222Z,6.95
2023-01-15T13:33:38.823Z,7.13
2023-01-15T13:36:15.540Z,7.01
2023-01-15T13:38:47.085Z,6.89
2023-01-15T13:41:40.636Z,6.76
2023-01-15T13:44:17.121Z,6.84
2023-01-15T13:46:43.995Z,6.87
2023-01-15T13:49:21.941Z,6.83
2023-01-15T13:51:50.320Z,6.68
2023-01-15T13:54:21.013Z,6.64
2023-01-15T13:56:47.827Z,6.71
2023-01-15T13:59:53.140Z,6.77
2023-01-15T14:02:32.109Z,6.73
2023-01-15T14:04:59.137Z,6.61
2023-01-15T14:07:37.382Z,6.56
2023-01-15T14:10:24.976Z,6.58
2023-01-15T14:12:54.569Z,6.57
2023-01-15T14:15:30.751Z,6.63
2023-01-15T14:18:22.754Z,6.98
2023-01-15T14:21:31.669Z,7.11
2023-01-15T14:24:13.251Z,7.00
2023-01-15T14:26:42.922Z,7.13
2023-01-15T14:29:27.523Z,7.18
2023-01-15T14:32:22.905Z,7.42
2023-01-15T14:34:58.369Z,7.31
2023-01-15T14:37:33.447Z,7.26
2023-01-15T14:40:05.126Z,7.19
2023-01-15T14:42:58.028Z,7.23
2023-01-15T14:45:36.473Z,7.29
2023-01-15T14:48:06.322Z,7.34
2023-01-15T14:50:33.757Z,7.36
2023-01-15T14:53:32.822Z,7.71
2023-01-15T14:56:03.191Z,7.49
2023-01-15T14:58:48.879Z,7.28
2023-01-15T15:02:11.001Z,7.06
2023-01-15T15:04:44.853Z,7.12
2023-01-15T15:07:19.069Z,7.26
2023-01-15T15:09:58.075Z,7.47
2023-01-15T15:12:35.505Z,7.56
2023-01-15T15:15:17.655Z,7.39
2023-01-15T15:18:07.808Z,7.25
2023-01-15T15:20:59.297Z,7.00
2023-01-15T15:23:58.208Z,6.99
2023-01-15T15:26:33.694Z,6.82
2023-01-15T15:29:09.484Z,6.88
2023-01-15T15:31:39.632Z,6.74
2023-01-15T15:34:14.890Z,6.67
2023-01-15T15:36:41.891Z,6.54
2023-01-15T15:39:29.440Z,6.53
2023-01-15T15:42:18.007Z,6.45
2023-01-15T15:45:14.617Z,6.40
2023-01-15T15:48:01.307Z,6.45
2023-01-15T15:50:32.547Z,6.46
2023-01-15T15:53:04.331Z,6.58
2023-01-15T15:55:44.006Z,6.66
2023-01-15T15:58:33.296Z,6.62
2023-01-15T16:01:00.875Z,6.62
2023-01-15T16:03:32.521Z,6.69
2023-01-15T16:06:05.301Z,6.67
2023-01-15T16:08:34.102Z,6.72
2023-01-15T16:11:04.906Z,6.61
2023-01-15T16:13:35.833Z,6.62
2023-01-15T16:16:05.677Z,6.51
2023-01-15T16:18:44.388Z,6.59
2023-01-15T16:21:16.987Z,6.54
2023-01-15T16:23:46.513Z,6.54
2023-01-15T16:26:20.012Z,6.60
2023-01-15T16:28:53.358Z,6.60
2023-01-15T16:31:21.952Z,6.59
2023-01-15T16:33:55.533Z,6.66
2023-01-15T16:36:23.375Z,6.80
2023-01-15T16:38:51.960Z,6.94
2023-01-15T16:41:38.326Z,6.93
2023-01-15T16:44:07.390Z,6.80
2023-01-15T16:46:39.222Z,6.78
2023-01-15T16:49:22.302Z,6.60
2023-01-15T16:51:53.762Z,6.54
2023-01-15T16:54:29.331Z,6.55
2023-01-15T16:57:00.190Z,6.43
2023-01-15T16:59:26.841Z,6.47
2023-01-15T17:02:02.632Z,6.46
2023-01-15T17:04:34.612Z,6.40
2023-01-15T17:07:07.546Z,6.43
2023-01-15T17:09:37.058Z,6.39
2023-01-15T17:12:26.561Z,6.40
2023-01-15T17:14:54.153Z,6.44
2023-01-15T17:17:23.561Z,6.42
2023-01-15T17:19:52.091Z,6.49
2023-01-15T17:22:24.433Z,6.51
2023-01-15T17:24:56.530Z,6.51
2023-01-15T17:27:24.610Z,6.46
2023-01-15T17:29:51.641Z,6.55
2023-01-15T17:32:25.765Z,6.67
2023-01-15T17:34:52.406Z,6.64
2023-01-15T17:37:19.133Z,6.72
2023-01-15T17:39:45.862Z,6.62
2023-01-15T17:42:18.247Z,6.73
2023-01-15T17:44:46.273Z,6.83
2023-01-15T17:47:13.220Z,6.58
2023-01-15T17:49:40.036Z,6.88
2023-01-15T17:52:08.639Z,6.99
2023-01-15T17:54:53.614Z,6.92
2023-01-15T17:57:39.225Z,6.83
2023-01-15T18:00:25.301Z,6.77
2023-01-15T18:03:10.986Z,6.93
2023-01-15T18:05:38.581Z,6.90
2023-01-15T18:08:08.276Z,7.05
2023-01-15T18:10:35.171Z,6.88
2023-01-15T18:13:03.688Z,6.87
2023-01-15T18:15:30.590Z,6.72
2023-01-15T18:17:57.405Z,6.96
2023-01-15T18:20:24.172Z,6.85
2023-01-15T18:22:50.862Z,6.80
2023-01-15T18:25:17.624Z,6.87
2023-01-15T18:27:44.342Z,7.01
2023-01-15T18:30:12.974Z,7.21
2023-01-15T18:32:40.224Z,7.31
2023-01-15T18:35:07.338Z,7.31
2023-01-15T18:37:34.742Z,7.29
2023-01-15T18:40:01.435Z,7.21
2023-01-15T18:42:46.468Z,7.16
2023-01-15T18:45:31.995Z,7.16
2023-01-15T18:48:01.357Z,7.11
2023-01-15T18:50:29.017Z,7.16
2023-01-15T18:52:55.951Z,7.16
2023-01-15T18:55:26.829Z,7.25
2023-01-15T18:57:54.650Z,7.26
2023-01-15T19:00:23.156Z,7.20
2023-01-15T19:02:51.051Z,7.16
2023-01-15T19:05:18.779Z,7.09
2023-01-15T19:07:46.109Z,7.25
2023-01-15T19:10:16.044Z,7.19
2023-01-15T19:12:44.677Z,7.11
2023-01-15T19:15:33.605Z,6.98
2023-01-15T19:18:19.082Z,6.94
2023-01-15T19:20:45.937Z,7.08
2023-01-15T19:23:12.638Z,7.17
2023-01-15T19:25:45.460Z,7.18
2023-01-15T19:28:17.995Z,7.15
2023-01-15T19:31:09.819Z,7.31
2023-01-15T19:33:36.528Z,7.43
2023-01-15T19:36:03.879Z,7.53
2023-01-15T19:38:30.773Z,7.62
2023-01-15T19:41:17.368Z,7.64
2023-01-15T19:44:02.532Z,7.64
2023-01-15T19:46:48.089Z,7.66
2023-01-15T19:49:39.048Z,7.65
2023-01-15T19:52:24.448Z,7.56
2023-01-15T19:54:56.752Z,7.64
2023-01-15T19:57:23.948Z,7.45
2023-01-15T19:59:50.666Z,7.54
2023-01-15T20:02:17.414Z,7.31
2023-01-15T20:04:48.551Z,7.14
2023-01-15T20:07:15.414Z,6.95
2023-01-15T20:09:43.268Z,6.88
2023-01-15T20:12:30.249Z,7.02
2023-01-15T20:14:57.072Z,7.30
2023-01-15T20:17:24.301Z,7.26
2023-01-15T20:19:50.922Z,7.01
2023-01-15T20:22:17.693Z,6.96
2023-01-15T20:24:44.586Z,6.93
2023-01-15T20:27:13.287Z,6.91
2023-01-15T20:29:43.177Z,6.71
2023-01-15T20:32:09.892Z,7.01
2023-01-15T20:34:38.975Z,6.95
2023-01-15T20:37:06.905Z,6.87
2023-01-15T20:39:34.127Z,6.44
2023-01-15T20:42:19.521Z,6.82
2023-01-15T20:44:55.422Z,6.82
2023-01-15T20:47:46.089Z,6.87
2023-01-15T20:50:17.166Z,6.89
2023-01-15T20:52:48.978Z,6.77
2023-01-15T20:55:17.131Z,6.81
2023-01-15T20:57:45.171Z,6.78
2023-01-15T21:00:15.871Z,6.76
2023-01-15T21:02:42.570Z,6.79
2023-01-15T21:05:09.910Z,6.85
2023-01-15T21:07:37.778Z,6.66
2023-01-15T21:10:06.581Z,6.74
2023-01-15T21:12:33.561Z,6.79
2023-01-15T21:15:00.261Z,6.96
2023-01-15T21:17:26.909Z,6.83
2023-01-15T21:19:53.547Z,6.76
2023-01-15T21:22:20.336Z,6.83
2023-01-15T21:24:48.808Z,7.02
2023-01-15T21:27:17.050Z,6.74
2023-01-15T21:29:43.674Z,6.90
2023-01-15T21:32:10.340Z,7.04
2023-01-15T21:34:36.959Z,6.85
2023-01-15T21:37:03.641Z,6.92
2023-01-15T21:39:30.325Z,7.05
2023-01-15T21:42:15.837Z,7.11
2023-01-15T21:44:46.024Z,7.04
2023-01-15T21:47:15.230Z,7.18
2023-01-15T21:49:43.059Z,7.16
2023-01-15T21:52:18.561Z,7.16
2023-01-15T21:54:45.784Z,7.12
2023-01-15T21:57:13.355Z,7.08
2023-01-15T21:59:41.235Z,7.12
2023-01-15T22:02:15.152Z,6.71
2023-01-15T22:04:43.570Z,6.93
2023-01-15T22:07:11.477Z,6.97
2023-01-15T22:09:38.807Z,6.99
2023-01-15T22:12:06.028Z,7.07
2023-01-15T22:14:33.272Z,6.71
2023-01-15T22:17:02.097Z,6.70
2023-01-15T22:19:31.199Z,6.85
2023-01-15T22:22:03.757Z,7.04
2023-01-15T22:24:32.818Z,6.97
2023-01-15T22:27:00.507Z,7.05
2023-01-15T22:29:29.939Z,7.07
2023-01-15T22:31:57.489Z,7.15
2023-01-15T22:34:26.816Z,7.05
2023-01-15T22:36:54.315Z,7.11
2023-01-15T22:39:22.207Z,6.91
2023-01-15T22:42:07.465Z,6.66
2023-01-15T22:44:34.402Z,6.58
2023-01-15T22:47:02.452Z,6.81
2023-01-15T22:49:29.738Z,7.04
2023-01-15T22:51:56.592Z,7.03
2023-01-15T22:54:23.633Z,7.13
2023-01-15T22:56:50.400Z,7.15
2023-01-15T22:59:17.223Z,7.21
2023-01-15T23:01:44.145Z,7.02
2023-01-15T23:04:14.213Z,7.22
2023-01-15T23:06:41.282Z,7.12
2023-01-15T23:09:09.301Z,6.90
2023-01-15T23:11:36.167Z,6.64
2023-01-15T23:14:02.816Z,6.60
2023-01-15T23:16:29.577Z,6.56
2023-01-15T23:18:56.301Z,6.53
2023-01-15T23:21:25.343Z,6.43
2023-01-15T23:23:56.454Z,6.34
2023-01-15T23:26:24.763Z,6.26
2023-01-15T23:28:51.823Z,6.35
2023-01-15T23:31:20.068Z,6.44
2023-01-15T23:33:47.265Z,6.57
2023-01-15T23:36:14.473Z,6.73
2023-01-15T23:38:42.449Z,6.60
2023-01-15T23:41:41.198Z,6.70
2023-01-15T23:44:35.300Z,6.89
2023-01-15T23:47:02.594Z,6.64
2023-01-15T23:49:29.367Z,6.69
2023-01-15T23:51:56.084Z,6.81
2023-01-15T23:54:25.507Z,6.74
2023-01-15T23:56:52.154Z,6.81
2023-01-15T23:59:18.968Z,6.70
